createdAt,value
2019-04-14T00:02:12.376Z,12.93
2019-04-14T00:04:44.521Z,12.80
2019-04-14T00:07:14.474Z,14.83
2019-04-14T00:09:43.678Z,10.47
2019-04-14T00:12:12.663Z,10.80
2019-04-14T00:14:42.532Z,9.73
2019-04-14T00:17:12.896Z,10.30
2019-04-14T00:19:41.905Z,10.27
2019-04-14T00:22:11.669Z,9.43
2019-04-14T00:24:40.798Z,11.10
2019-04-14T00:27:10.644Z,9.47
2019-04-14T00:29:39.810Z,9.57
2019-04-14T00:32:09.567Z,9.07
2019-04-14T00:35:16.752Z,9.40
2019-04-14T00:38:20.270Z,9.90
2019-04-14T00:40:58.354Z,12.33
2019-04-14T00:43:52.721Z,10.53
2019-04-14T00:46:27.608Z,9.53
2019-04-14T00:48:56.619Z,11.70
2019-04-14T00:51:26.574Z,8.37
2019-04-14T00:53:55.824Z,9.00
2019-04-14T00:56:25.835Z,10.30
2019-04-14T00:58:56.020Z,9.60
2019-04-14T01:01:26.498Z,9.70
2019-04-14T01:03:55.558Z,9.63
2019-04-14T01:06:25.087Z,8.87
2019-04-14T01:08:55.309Z,7.90
2019-04-14T01:11:24.894Z,9.13
2019-04-14T01:13:55.017Z,8.57
2019-04-14T01:16:25.405Z,7.70
2019-04-14T01:18:55.869Z,9.37
2019-04-14T01:21:24.869Z,7.70
2019-04-14T01:23:54.494Z,8.80
2019-04-14T01:26:24.638Z,7.90
2019-04-14T01:28:54.762Z,9.53
2019-04-14T01:31:25.111Z,8.83
2019-04-14T01:33:54.046Z,8.70
2019-04-14T01:36:23.481Z,8.00
2019-04-14T01:38:53.625Z,9.83
2019-04-14T01:41:23.813Z,7.30
2019-04-14T01:43:53.920Z,7.90
2019-04-14T01:46:26.552Z,7.80
2019-04-14T01:48:54.077Z,7.43
2019-04-14T01:51:30.963Z,7.67
2019-04-14T01:54:13.228Z,8.30
2019-04-14T01:56:51.383Z,8.40
2019-04-14T01:59:20.404Z,7.90
2019-04-14T02:01:50.268Z,7.63
2019-04-14T02:04:20.340Z,8.97
2019-04-14T02:06:50.558Z,8.43
2019-04-14T02:09:20.729Z,7.30
2019-04-14T02:11:50.990Z,7.93
2019-04-14T02:14:21.102Z,8.50
2019-04-14T02:16:55.337Z,6.87
2019-04-14T02:19:22.037Z,7.20
2019-04-14T02:21:52.036Z,8.70
2019-04-14T02:24:22.077Z,7.90
2019-04-14T02:26:52.504Z,7.60
2019-04-14T02:29:21.713Z,7.47
2019-04-14T02:32:18.581Z,7.10
2019-04-14T02:34:49.449Z,6.60
2019-04-14T02:37:21.541Z,7.20
2019-04-14T02:39:53.888Z,6.90
2019-04-14T02:42:32.604Z,8.33
2019-04-14T02:44:51.809Z,6.67
2019-04-14T02:47:48.774Z,8.47
2019-04-14T02:49:51.152Z,6.50
2019-04-14T02:54:59.564Z,7.03
2019-04-14T02:57:24.254Z,6.80
2019-04-14T03:02:29.259Z,6.97
2019-04-14T03:04:57.049Z,6.80
2019-04-14T03:09:55.733Z,6.67
2019-04-14T03:15:01.415Z,6.20
2019-04-14T03:17:58.493Z,7.20
2019-04-14T03:20:45.482Z,7.00
2019-04-14T03:23:23.681Z,6.33
2019-04-14T03:26:04.885Z,6.97
2019-04-14T03:31:49.563Z,6.70
2019-04-14T03:34:17.978Z,6.90
2019-04-14T03:38:53.600Z,6.67
2019-04-14T03:41:27.363Z,6.83
2019-04-14T03:43:41.368Z,6.60
2019-04-14T03:46:25.477Z,7.33
2019-04-14T03:48:58.469Z,6.83
2019-04-14T03:51:28.392Z,8.03
2019-04-14T03:56:33.747Z,8.70
2019-04-14T03:59:04.115Z,6.67
2019-04-14T04:01:34.450Z,6.40
2019-04-14T04:04:03.712Z,7.93
2019-04-14T04:06:33.497Z,7.27
2019-04-14T04:09:04.312Z,6.93
2019-04-14T04:11:34.382Z,7.90
2019-04-14T04:14:03.676Z,7.27
2019-04-14T04:16:41.912Z,6.80
2019-04-14T04:19:21.241Z,6.50
2019-04-14T04:22:11.102Z,6.83
2019-04-14T04:24:47.597Z,7.03
2019-04-14T04:27:39.514Z,6.73
2019-04-14T04:30:16.522Z,8.07
2019-04-14T04:33:08.703Z,7.10
2019-04-14T04:35:41.807Z,6.93
2019-04-14T04:38:26.916Z,6.20
2019-04-14T04:40:57.139Z,6.70
2019-04-14T04:43:27.577Z,7.80
2019-04-14T04:45:58.038Z,6.60
2019-04-14T04:48:28.455Z,7.43
2019-04-14T04:50:58.542Z,6.83
2019-04-14T04:53:28.805Z,6.87
2019-04-14T04:55:57.871Z,7.27
2019-04-14T04:58:26.823Z,6.33
2019-04-14T05:00:57.563Z,6.60
2019-04-14T05:03:27.579Z,8.43
2019-04-14T05:06:15.441Z,8.30
2019-04-14T05:08:50.232Z,6.77
2019-04-14T05:11:27.366Z,6.97
2019-04-14T05:13:57.602Z,7.30
2019-04-14T05:16:26.752Z,6.87
2019-04-14T05:18:55.808Z,7.23
2019-04-14T05:21:25.593Z,6.60
2019-04-14T05:23:55.979Z,8.07
2019-04-14T05:26:25.216Z,6.23
2019-04-14T05:28:54.867Z,6.30
2019-04-14T05:31:27.313Z,7.20
2019-04-14T05:33:55.476Z,7.30
2019-04-14T05:36:24.675Z,7.10
2019-04-14T05:38:54.082Z,6.10
2019-04-14T05:41:24.332Z,6.47
2019-04-14T05:43:57.114Z,7.40
2019-04-14T05:46:25.259Z,7.20
2019-04-14T05:48:54.303Z,7.47
2019-04-14T05:51:24.875Z,8.27
2019-04-14T05:53:54.541Z,7.23
2019-04-14T05:56:23.643Z,6.40
2019-04-14T05:58:53.621Z,7.67
2019-04-14T06:01:22.703Z,7.10
2019-04-14T06:03:51.823Z,7.73
2019-04-14T06:06:21.003Z,7.53
2019-04-14T06:08:50.043Z,7.07
2019-04-14T06:11:19.064Z,6.20
2019-04-14T06:13:48.015Z,7.53
2019-04-14T06:16:16.959Z,6.27
2019-04-14T06:18:46.018Z,7.63
2019-04-14T06:21:15.068Z,8.33
2019-04-14T06:23:44.111Z,7.03
2019-04-14T06:26:13.135Z,6.80
2019-04-14T06:28:42.176Z,8.10
2019-04-14T06:31:28.370Z,6.30
2019-04-14T06:34:20.474Z,7.43
2019-04-14T06:37:08.812Z,7.53
2019-04-14T06:39:41.512Z,7.67
2019-04-14T06:42:10.545Z,7.50
2019-04-14T06:44:39.612Z,7.20
2019-04-14T06:47:08.656Z,7.37
2019-04-14T06:49:48.375Z,6.90
2019-04-14T06:52:08.579Z,7.83
2019-04-14T06:54:37.623Z,7.43
2019-04-14T06:57:06.672Z,7.50
2019-04-14T06:59:35.919Z,7.67
2019-04-14T07:02:04.960Z,7.93
2019-04-14T07:04:34.036Z,7.20
2019-04-14T07:07:03.128Z,9.13
2019-04-14T07:09:32.134Z,8.03
2019-04-14T07:12:01.227Z,7.70
2019-04-14T07:14:32.000Z,7.30
2019-04-14T07:17:01.272Z,7.87
2019-04-14T07:19:30.347Z,8.33
2019-04-14T07:21:59.432Z,7.23
2019-04-14T07:24:28.492Z,8.60
2019-04-14T07:26:57.527Z,9.10
2019-04-14T07:29:28.916Z,7.80
2019-04-14T07:32:13.529Z,7.67
2019-04-14T07:35:10.901Z,7.30
2019-04-14T07:37:59.001Z,8.23
2019-04-14T07:40:40.949Z,8.87
2019-04-14T07:43:29.112Z,8.13
2019-04-14T07:46:23.108Z,8.40
2019-04-14T07:49:13.881Z,8.77
2019-04-14T07:51:58.444Z,7.90
2019-04-14T07:54:37.589Z,8.03
2019-04-14T07:57:14.695Z,8.00
2019-04-14T08:00:04.813Z,8.17
2019-04-14T08:02:59.244Z,8.37
2019-04-14T08:05:34.547Z,6.97
2019-04-14T08:08:03.659Z,8.27
2019-04-14T08:10:32.658Z,7.63
2019-04-14T08:13:01.786Z,7.93
2019-04-14T08:15:30.825Z,8.10
2019-04-14T08:17:59.900Z,8.00
2019-04-14T08:20:28.925Z,7.23
2019-04-14T08:22:58.101Z,8.23
2019-04-14T08:25:27.236Z,8.40
2019-04-14T08:27:56.285Z,8.93
2019-04-14T08:30:25.328Z,8.67
2019-04-14T08:32:54.403Z,7.30
2019-04-14T08:35:23.529Z,8.00
2019-04-14T08:37:52.579Z,8.73
2019-04-14T08:40:21.637Z,8.60
2019-04-14T08:43:00.327Z,8.93
2019-04-14T08:45:57.440Z,9.70
2019-04-14T08:48:45.172Z,8.60
2019-04-14T08:51:20.087Z,8.10
2019-04-14T08:53:53.607Z,7.43
2019-04-14T08:56:34.173Z,9.57
2019-04-14T08:59:17.313Z,7.83
2019-04-14T09:02:04.263Z,8.60
2019-04-14T09:05:04.706Z,8.70
2019-04-14T09:07:38.412Z,8.20
2019-04-14T09:10:32.714Z,8.77
2019-04-14T09:13:01.680Z,9.10
2019-04-14T09:15:30.799Z,8.60
2019-04-14T09:17:59.759Z,8.77
2019-04-14T09:20:28.819Z,9.10
2019-04-14T09:22:57.867Z,8.30
2019-04-14T09:25:26.893Z,9.00
2019-04-14T09:27:55.854Z,8.00
2019-04-14T09:30:24.899Z,8.33
2019-04-14T09:32:53.948Z,8.73
2019-04-14T09:35:22.826Z,8.53
2019-04-14T09:37:51.775Z,8.53
2019-04-14T09:40:20.807Z,8.70
2019-04-14T09:42:49.832Z,12.10
2019-04-14T09:45:18.895Z,9.10
2019-04-14T09:47:47.914Z,9.43
2019-04-14T09:50:16.951Z,8.00
2019-04-14T09:52:45.977Z,9.60
2019-04-14T09:55:15.191Z,8.37
2019-04-14T09:57:44.230Z,7.70
2019-04-14T10:00:14.843Z,7.93
2019-04-14T10:02:43.880Z,8.23
2019-04-14T10:05:12.945Z,9.13
2019-04-14T10:07:42.003Z,8.77
2019-04-14T10:10:11.139Z,9.33
2019-04-14T10:12:40.163Z,9.27
2019-04-14T10:15:09.335Z,9.30
2019-04-14T10:17:38.366Z,13.70
2019-04-14T10:20:07.499Z,10.30
2019-04-14T10:22:36.531Z,8.87
2019-04-14T10:25:05.695Z,11.30
2019-04-14T10:27:34.759Z,9.97
2019-04-14T10:30:04.152Z,9.00
2019-04-14T10:32:33.172Z,8.50
2019-04-14T10:35:02.208Z,9.70
2019-04-14T10:37:31.232Z,9.90
2019-04-14T10:40:00.238Z,9.70
2019-04-14T10:42:29.191Z,9.57
2019-04-14T10:44:58.223Z,9.40
2019-04-14T10:47:27.246Z,10.10
2019-04-14T10:49:56.291Z,11.13
2019-04-14T10:52:25.347Z,10.07
2019-04-14T10:54:54.284Z,9.67
2019-04-14T10:57:23.412Z,10.37
2019-04-14T10:59:52.516Z,9.63
2019-04-14T11:02:21.577Z,8.60
2019-04-14T11:04:50.667Z,10.27
2019-04-14T11:07:28.216Z,9.50
2019-04-14T11:09:57.413Z,12.77
2019-04-14T11:12:26.516Z,9.17
2019-04-14T11:14:55.596Z,10.17
2019-04-14T11:17:24.820Z,9.00
2019-04-14T11:19:53.847Z,10.00
2019-04-14T11:22:23.009Z,10.93
2019-04-14T11:24:52.011Z,10.20
2019-04-14T11:27:21.097Z,10.00
2019-04-14T11:29:53.948Z,9.27
2019-04-14T11:32:42.767Z,12.30
2019-04-14T11:35:25.017Z,10.30
2019-04-14T11:38:05.720Z,9.87
2019-04-14T11:40:39.609Z,8.80
2019-04-14T11:43:08.653Z,8.80
2019-04-14T11:45:37.698Z,9.50
2019-04-14T11:48:06.743Z,9.83
2019-04-14T11:50:35.819Z,8.87
2019-04-14T11:53:04.912Z,11.10
2019-04-14T11:55:34.187Z,9.90
2019-04-14T11:58:03.237Z,8.80
2019-04-14T12:00:45.170Z,8.57
2019-04-14T12:03:32.495Z,8.90
2019-04-14T12:06:23.592Z,11.50
2019-04-14T12:09:02.145Z,9.30
2019-04-14T12:11:31.197Z,10.80
2019-04-14T12:14:00.166Z,10.03
2019-04-14T12:16:29.178Z,12.57
2019-04-14T12:18:58.231Z,10.43
2019-04-14T12:21:27.264Z,8.40
2019-04-14T12:23:56.325Z,11.50
2019-04-14T12:26:25.369Z,9.90
2019-04-14T12:28:55.798Z,11.07
2019-04-14T12:31:26.533Z,9.33
2019-04-14T12:33:55.619Z,9.93
2019-04-14T12:36:24.718Z,10.13
2019-04-14T12:38:53.769Z,9.73
2019-04-14T12:41:28.758Z,9.50
2019-04-14T12:44:25.909Z,9.67
2019-04-14T12:47:12.802Z,13.90
2019-04-14T12:49:44.332Z,9.63
2019-04-14T12:52:21.581Z,9.37
2019-04-14T12:54:49.689Z,11.23
2019-04-14T12:57:28.163Z,13.90
2019-04-14T12:59:58.221Z,9.87
2019-04-14T13:02:34.322Z,9.87
2019-04-14T13:05:04.246Z,10.07
2019-04-14T13:07:36.811Z,11.40
2019-04-14T13:10:07.176Z,9.63
2019-04-14T13:12:37.021Z,9.40
2019-04-14T13:15:06.903Z,11.70
2019-04-14T13:17:38.252Z,16.30
2019-04-14T13:20:08.769Z,11.17
2019-04-14T13:22:38.663Z,8.80
2019-04-14T13:25:08.379Z,9.43
2019-04-14T13:27:38.320Z,8.63
2019-04-14T13:30:09.992Z,9.30
2019-04-14T13:32:39.059Z,11.87
2019-04-14T13:35:08.580Z,9.60
2019-04-14T13:37:37.626Z,8.73
2019-04-14T13:40:07.077Z,9.00
2019-04-14T13:42:36.136Z,8.67
2019-04-14T13:45:05.721Z,8.73
2019-04-14T13:47:34.761Z,10.53
2019-04-14T13:50:04.519Z,8.90
2019-04-14T13:52:45.745Z,8.47
2019-04-14T13:55:04.699Z,9.37
2019-04-14T13:57:33.731Z,9.70
2019-04-14T14:00:02.942Z,9.57
2019-04-14T14:02:31.942Z,8.60
2019-04-14T14:05:01.030Z,28.03
2019-04-14T14:07:30.158Z,49.83
2019-04-14T14:09:59.240Z,85.93
2019-04-14T14:12:30.349Z,95.23
2019-04-14T14:15:14.713Z,88.63
2019-04-14T14:17:56.967Z,107.33
2019-04-14T14:20:39.553Z,141.30
2019-04-14T14:23:28.037Z,149.17
2019-04-14T14:26:01.325Z,154.47
2019-04-14T14:28:30.399Z,128.37
2019-04-14T14:30:59.503Z,129.23
2019-04-14T14:33:28.474Z,140.33
2019-04-14T14:35:57.529Z,127.03
2019-04-14T14:38:26.680Z,146.97
2019-04-14T14:40:57.195Z,113.57
2019-04-14T14:43:26.235Z,109.40
2019-04-14T14:46:15.843Z,118.73
2019-04-14T14:49:07.012Z,104.20
2019-04-14T14:51:48.397Z,122.77
2019-04-14T14:54:17.473Z,105.87
2019-04-14T14:56:46.540Z,95.03
2019-04-14T14:59:15.584Z,103.03
2019-04-14T15:01:44.731Z,106.83
2019-04-14T15:04:13.757Z,107.20
2019-04-14T15:06:42.715Z,87.83
2019-04-14T15:09:11.756Z,84.50
2019-04-14T15:11:40.848Z,99.73
2019-04-14T15:14:09.904Z,94.17
2019-04-14T15:16:39.027Z,88.90
2019-04-14T15:19:08.088Z,81.43
2019-04-14T15:21:37.144Z,77.60
2019-04-14T15:24:06.284Z,72.60
2019-04-14T15:26:35.357Z,70.30
2019-04-14T15:29:04.580Z,74.80
2019-04-14T15:31:33.623Z,78.07
2019-04-14T15:34:02.684Z,71.47
2019-04-14T15:36:31.753Z,76.23
2019-04-14T15:39:00.809Z,52.23
2019-04-14T15:41:29.844Z,69.70
2019-04-14T15:43:58.867Z,75.90
2019-04-14T15:46:27.940Z,68.90
2019-04-14T15:48:56.987Z,82.47
2019-04-14T15:51:26.051Z,65.30
2019-04-14T15:53:55.104Z,69.27
2019-04-14T15:56:32.696Z,60.23
2019-04-14T15:59:20.236Z,49.23
2019-04-14T16:02:14.161Z,58.23
2019-04-14T16:05:12.539Z,58.70
2019-04-14T16:07:58.060Z,51.50
2019-04-14T16:10:47.770Z,59.13
2019-04-14T16:13:35.880Z,60.13
2019-04-14T16:16:36.382Z,50.43
2019-04-14T16:19:18.712Z,57.30
2019-04-14T16:21:47.786Z,46.83
2019-04-14T16:24:16.836Z,59.27
2019-04-14T16:27:04.932Z,46.00
2019-04-14T16:29:41.740Z,43.93
2019-04-14T16:32:17.172Z,51.63
2019-04-14T16:34:49.768Z,53.73
2019-04-14T16:37:18.843Z,49.33
2019-04-14T16:39:47.885Z,43.77
2019-04-14T16:42:17.121Z,40.30
2019-04-14T16:44:46.181Z,41.03
2019-04-14T16:47:15.219Z,44.70
2019-04-14T16:49:44.268Z,39.40
2019-04-14T16:52:25.676Z,46.20
2019-04-14T16:55:13.768Z,46.03
2019-04-14T16:58:02.054Z,34.67
2019-04-14T17:00:37.030Z,48.27
2019-04-14T17:03:05.451Z,39.90
2019-04-14T17:05:35.062Z,43.23
2019-04-14T17:08:04.220Z,33.30
2019-04-14T17:10:33.287Z,41.13
2019-04-14T17:13:02.398Z,39.37
2019-04-14T17:15:42.067Z,33.17
2019-04-14T17:18:34.032Z,36.07
2019-04-14T17:21:21.059Z,38.50
2019-04-14T17:24:16.470Z,36.20
2019-04-14T17:26:56.131Z,36.47
2019-04-14T17:29:54.865Z,37.43
2019-04-14T17:32:46.942Z,30.10
2019-04-14T17:35:35.284Z,42.40
2019-04-14T17:38:23.392Z,32.03
2019-04-14T17:41:07.188Z,37.30
2019-04-14T17:43:40.075Z,31.17
2019-04-14T17:46:27.092Z,27.87
2019-04-14T17:49:06.051Z,35.73
2019-04-14T17:51:44.120Z,31.67
2019-04-14T17:54:29.110Z,32.40
2019-04-14T17:57:00.732Z,31.63
2019-04-14T17:59:47.447Z,28.87
2019-04-14T18:02:44.187Z,28.53
2019-04-14T18:05:17.377Z,30.90
2019-04-14T18:08:00.387Z,26.50
2019-04-14T18:10:44.752Z,34.10
2019-04-14T18:13:18.303Z,24.17
2019-04-14T18:16:05.037Z,28.63
2019-04-14T18:19:05.596Z,34.30
2019-04-14T18:21:34.644Z,36.33
2019-04-14T18:24:04.023Z,31.80
2019-04-14T18:26:33.063Z,24.17
2019-04-14T18:29:20.097Z,28.07
2019-04-14T18:32:17.347Z,28.50
2019-04-14T18:34:50.811Z,29.80
2019-04-14T18:37:41.600Z,22.00
2019-04-14T18:40:17.779Z,30.00
2019-04-14T18:43:14.899Z,24.50
2019-04-14T18:45:54.884Z,23.37
2019-04-14T18:48:36.785Z,22.17
2019-04-14T18:51:23.736Z,24.57
2019-04-14T18:54:15.181Z,26.00
2019-04-14T18:57:12.232Z,24.93
2019-04-14T19:00:18.528Z,27.67
2019-04-14T19:02:47.884Z,24.90
2019-04-14T19:05:16.954Z,22.87
2019-04-14T19:07:46.032Z,22.40
2019-04-14T19:10:15.078Z,23.87
2019-04-14T19:12:52.992Z,21.87
2019-04-14T19:15:32.415Z,21.37
2019-04-14T19:18:09.124Z,23.47
2019-04-14T19:20:40.044Z,25.63
2019-04-14T19:23:09.069Z,22.90
2019-04-14T19:25:38.120Z,19.60
2019-04-14T19:28:07.167Z,20.87
2019-04-14T19:30:36.127Z,18.60
2019-04-14T19:33:05.171Z,22.00
2019-04-14T19:35:34.319Z,18.10
2019-04-14T19:38:03.385Z,20.90
2019-04-14T19:40:35.366Z,20.27
2019-04-14T19:43:03.204Z,24.23
2019-04-14T19:45:32.279Z,18.87
2019-04-14T19:48:01.293Z,19.83
2019-04-14T19:50:30.252Z,14.90
2019-04-14T19:52:59.336Z,21.07
2019-04-14T19:55:28.393Z,21.13
2019-04-14T19:57:57.444Z,20.70
2019-04-14T20:00:26.609Z,21.13
2019-04-14T20:02:55.682Z,18.47
2019-04-14T20:05:24.791Z,22.63
2019-04-14T20:07:53.743Z,19.87
2019-04-14T20:10:22.788Z,21.73
2019-04-14T20:12:52.128Z,19.77
2019-04-14T20:15:30.454Z,19.80
2019-04-14T20:18:10.433Z,16.83
2019-04-14T20:20:52.292Z,19.00
2019-04-14T20:23:40.398Z,17.80
2019-04-14T20:26:43.580Z,16.50
2019-04-14T20:29:19.274Z,15.53
2019-04-14T20:32:01.668Z,16.63
2019-04-14T20:34:30.727Z,18.93
2019-04-14T20:36:59.763Z,16.83
2019-04-14T20:39:29.573Z,17.00
2019-04-14T20:41:58.607Z,20.17
2019-04-14T20:44:27.656Z,17.43
2019-04-14T20:46:56.749Z,19.53
2019-04-14T20:49:25.796Z,14.93
2019-04-14T20:51:54.875Z,14.83
2019-04-14T20:54:23.921Z,17.60
2019-04-14T20:56:52.982Z,14.70
2019-04-14T20:59:22.116Z,18.57
2019-04-14T21:02:12.988Z,18.67
2019-04-14T21:04:58.189Z,14.50
2019-04-14T21:07:55.596Z,13.13
2019-04-14T21:10:49.397Z,17.00
2019-04-14T21:13:24.558Z,16.37
2019-04-14T21:16:12.736Z,15.97
2019-04-14T21:18:55.748Z,14.90
2019-04-14T21:21:40.628Z,18.23
2019-04-14T21:24:22.420Z,13.93
2019-04-14T21:27:10.512Z,12.60
2019-04-14T21:30:00.553Z,14.97
2019-04-14T21:32:37.286Z,21.77
2019-04-14T21:35:24.114Z,15.77
2019-04-14T21:37:59.417Z,15.80
2019-04-14T21:40:46.488Z,13.03
2019-04-14T21:43:15.639Z,13.97
2019-04-14T21:45:44.687Z,13.10
2019-04-14T21:48:13.795Z,16.33
2019-04-14T21:50:42.864Z,13.23
2019-04-14T21:53:11.890Z,16.10
2019-04-14T21:55:40.953Z,12.20
2019-04-14T21:58:41.400Z,12.53
2019-04-14T22:01:51.840Z,14.27
2019-04-14T22:04:39.784Z,13.30
2019-04-14T22:07:26.872Z,14.63
2019-04-14T22:09:59.635Z,14.23
2019-04-14T22:12:29.456Z,13.63
2019-04-14T22:14:58.519Z,10.83
2019-04-14T22:17:27.560Z,13.77
2019-04-14T22:19:56.621Z,11.70
2019-04-14T22:22:25.669Z,12.13
2019-04-14T22:24:54.715Z,10.83
2019-04-14T22:27:23.774Z,17.30
2019-04-14T22:29:53.788Z,15.30
2019-04-14T22:32:23.037Z,13.37
2019-04-14T22:34:52.153Z,12.13
2019-04-14T22:37:21.194Z,11.57
2019-04-14T22:39:50.165Z,10.00
2019-04-14T22:42:19.196Z,11.77
2019-04-14T22:44:48.263Z,13.63
2019-04-14T22:47:17.328Z,10.43
2019-04-14T22:49:46.398Z,13.60
2019-04-14T22:52:16.508Z,11.43
2019-04-14T22:54:46.691Z,11.53
2019-04-14T22:57:16.769Z,11.93
2019-04-14T22:59:46.968Z,12.10
2019-04-14T23:02:27.860Z,11.13
2019-04-14T23:05:14.498Z,11.97
2019-04-14T23:08:10.057Z,12.57
2019-04-14T23:11:16.698Z,10.40
2019-04-14T23:14:03.576Z,8.50
2019-04-14T23:16:51.724Z,11.70
2019-04-14T23:19:28.790Z,13.67
2019-04-14T23:22:08.763Z,11.83
2019-04-14T23:24:41.152Z,8.73
2019-04-14T23:27:10.940Z,12.43
2019-04-14T23:29:40.711Z,9.40
2019-04-14T23:32:10.830Z,12.47
2019-04-14T23:34:40.581Z,9.80
2019-04-14T23:37:10.196Z,11.00
2019-04-14T23:39:39.919Z,10.87
2019-04-14T23:42:09.665Z,8.93
2019-04-14T23:44:38.662Z,9.63
2019-04-14T23:47:07.681Z,8.90
2019-04-14T23:49:36.730Z,8.23
2019-04-14T23:52:05.734Z,9.17
2019-04-14T23:54:34.759Z,7.97
2019-04-14T23:57:05.943Z,8.07
2019-04-14T23:59:34.665Z,9.30
